createdAt,value
2018-06-27T00:00:20.648Z,418.60
2018-06-27T00:01:20.724Z,407.70
2018-06-27T00:02:20.765Z,425.40
2018-06-27T00:03:20.829Z,413.20
2018-06-27T00:04:20.838Z,422.10
2018-06-27T00:05:20.910Z,430.30
2018-06-27T00:06:20.925Z,431.00
2018-06-27T00:07:20.995Z,421.30
2018-06-27T00:08:21.005Z,449.20
2018-06-27T00:09:21.057Z,422.60
2018-06-27T00:10:21.100Z,421.00
2018-06-27T00:11:21.163Z,419.70
2018-06-27T00:12:21.233Z,404.20
2018-06-27T00:13:21.265Z,422.20
2018-06-27T00:14:21.334Z,406.80
2018-06-27T00:15:21.350Z,401.70
2018-06-27T00:16:21.413Z,471.90
2018-06-27T00:17:21.445Z,408.80
2018-06-27T00:18:21.505Z,412.70
2018-06-27T00:19:21.539Z,412.50
2018-06-27T00:20:21.550Z,423.40
2018-06-27T00:21:21.604Z,406.70
2018-06-27T00:22:21.648Z,400.70
2018-06-27T00:23:21.738Z,400.60
2018-06-27T00:24:21.755Z,417.30
2018-06-27T00:25:21.826Z,410.60
2018-06-27T00:26:21.841Z,404.70
2018-06-27T00:27:21.934Z,401.10
2018-06-27T00:28:21.940Z,375.00
2018-06-27T00:29:22.027Z,386.90
2018-06-27T00:30:22.024Z,413.40
2018-06-27T00:31:22.086Z,413.60
2018-06-27T00:32:22.127Z,413.40
2018-06-27T00:33:22.167Z,399.50
2018-06-27T00:34:22.224Z,404.60
2018-06-27T00:35:22.257Z,405.20
2018-06-27T00:36:22.333Z,411.40
2018-06-27T00:37:22.383Z,409.40
2018-06-27T00:38:22.425Z,435.50
2018-06-27T00:39:22.436Z,426.20
2018-06-27T00:40:22.522Z,399.80
2018-06-27T00:41:22.563Z,399.70
2018-06-27T00:42:22.812Z,430.30
2018-06-27T00:43:22.626Z,391.10
2018-06-27T00:44:22.681Z,376.50
2018-06-27T00:45:22.736Z,385.90
2018-06-27T00:46:22.784Z,378.50
2018-06-27T00:47:22.791Z,409.00
2018-06-27T00:48:22.882Z,382.20
2018-06-27T00:49:22.922Z,380.70
2018-06-27T00:50:22.957Z,371.80
2018-06-27T00:51:23.012Z,372.10
2018-06-27T00:52:23.049Z,353.80
2018-06-27T00:53:23.108Z,336.40
2018-06-27T00:54:23.157Z,335.30
2018-06-27T00:55:23.202Z,349.80
2018-06-27T00:56:23.233Z,349.20
2018-06-27T00:57:23.297Z,346.50
2018-06-27T00:58:23.306Z,352.70
2018-06-27T00:59:23.382Z,339.80
2018-06-27T01:00:23.438Z,354.40
2018-06-27T01:01:23.482Z,337.40
2018-06-27T01:02:23.521Z,341.30
2018-06-27T01:03:23.549Z,349.80
2018-06-27T01:04:23.599Z,341.20
2018-06-27T01:05:23.643Z,350.00
2018-06-27T01:06:23.718Z,361.40
2018-06-27T01:07:23.726Z,350.30
2018-06-27T01:08:23.990Z,361.10
2018-06-27T01:09:23.839Z,364.70
2018-06-27T01:10:23.877Z,354.30
2018-06-27T01:11:23.918Z,370.90
2018-06-27T01:12:23.993Z,358.00
2018-06-27T01:13:24.017Z,355.00
2018-06-27T01:14:24.080Z,367.60
2018-06-27T01:15:24.107Z,343.30
2018-06-27T01:16:24.138Z,337.30
2018-06-27T01:17:24.202Z,330.70
2018-06-27T01:18:24.249Z,334.70
2018-06-27T01:19:24.279Z,338.60
2018-06-27T01:20:24.337Z,337.20
2018-06-27T01:21:24.389Z,334.60
2018-06-27T01:22:24.437Z,330.70
2018-06-27T01:23:24.484Z,334.50
2018-06-27T01:24:24.497Z,336.80
2018-06-27T01:25:24.575Z,336.90
2018-06-27T01:26:24.595Z,320.40
2018-06-27T01:27:24.653Z,311.60
2018-06-27T01:28:24.697Z,326.00
2018-06-27T01:29:24.725Z,320.20
2018-06-27T01:30:24.777Z,332.80
2018-06-27T01:31:24.810Z,328.70
2018-06-27T01:32:24.882Z,329.20
2018-06-27T01:33:24.929Z,349.10
2018-06-27T01:34:24.958Z,352.50
2018-06-27T01:35:25.021Z,361.70
2018-06-27T01:36:25.027Z,354.00
2018-06-27T01:37:25.119Z,354.90
2018-06-27T01:38:25.150Z,359.90
2018-06-27T01:39:25.182Z,354.50
2018-06-27T01:40:25.237Z,361.30
2018-06-27T01:41:25.285Z,353.90
2018-06-27T01:42:25.351Z,370.00
2018-06-27T01:43:25.365Z,361.80
2018-06-27T01:44:25.416Z,359.00
2018-06-27T01:45:25.445Z,340.70
2018-06-27T01:46:25.497Z,331.20
2018-06-27T01:47:25.730Z,341.80
2018-06-27T01:48:25.584Z,309.20
2018-06-27T01:49:25.631Z,314.90
2018-06-27T01:50:25.684Z,291.00
2018-06-27T01:51:25.759Z,301.90
2018-06-27T01:52:25.825Z,251.00
2018-06-27T01:53:25.819Z,280.50
2018-06-27T01:54:25.878Z,287.30
2018-06-27T01:55:25.933Z,278.70
2018-06-27T01:56:25.970Z,270.80
2018-06-27T01:57:26.010Z,268.90
2018-06-27T01:58:26.060Z,283.90
2018-06-27T01:59:26.071Z,268.70
2018-06-27T02:00:26.147Z,258.80
2018-06-27T02:01:26.205Z,274.10
2018-06-27T02:02:26.256Z,285.20
2018-06-27T02:03:26.299Z,284.30
2018-06-27T02:04:26.341Z,269.00
2018-06-27T02:05:26.366Z,280.60
2018-06-27T02:06:26.391Z,273.80
2018-06-27T02:07:26.447Z,273.60
2018-06-27T02:08:26.493Z,278.90
2018-06-27T02:09:26.562Z,286.50
2018-06-27T02:10:26.605Z,296.80
2018-06-27T02:11:26.619Z,297.40
2018-06-27T02:12:26.680Z,306.10
2018-06-27T02:13:26.710Z,305.40
2018-06-27T02:14:26.764Z,286.40
2018-06-27T02:15:26.797Z,296.50
2018-06-27T02:16:27.166Z,288.40
2018-06-27T02:17:26.914Z,289.80
2018-06-27T02:18:26.942Z,315.30
2018-06-27T02:19:27.001Z,293.30
2018-06-27T02:20:27.036Z,319.70
2018-06-27T02:21:27.083Z,313.10
2018-06-27T02:22:27.356Z,309.80
2018-06-27T02:23:27.194Z,317.80
2018-06-27T02:24:27.266Z,325.20
2018-06-27T02:25:27.268Z,339.60
2018-06-27T02:26:27.301Z,338.70
2018-06-27T02:27:27.360Z,351.90
2018-06-27T02:28:27.395Z,353.60
2018-06-27T02:29:27.448Z,389.40
2018-06-27T02:30:27.490Z,417.50
2018-06-27T02:31:27.536Z,398.30
2018-06-27T02:32:27.605Z,372.00
2018-06-27T02:33:27.609Z,362.00
2018-06-27T02:34:27.669Z,356.00
2018-06-27T02:35:27.750Z,330.30
2018-06-27T02:36:27.776Z,329.20
2018-06-27T02:37:28.025Z,186.40
2018-06-27T02:38:27.871Z,109.90
2018-06-27T02:39:27.876Z,117.10
2018-06-27T02:40:27.931Z,102.70
2018-06-27T02:41:27.986Z,110.40
2018-06-27T02:42:28.015Z,116.90
2018-06-27T02:43:28.087Z,124.50
2018-06-27T02:44:28.126Z,112.00
2018-06-27T02:45:28.188Z,107.90
2018-06-27T02:46:28.217Z,107.60
2018-06-27T02:47:28.287Z,110.60
2018-06-27T02:48:28.506Z,105.00
2018-06-27T02:49:28.345Z,99.20
2018-06-27T02:50:28.393Z,97.90
2018-06-27T02:51:28.418Z,101.10
2018-06-27T02:52:28.476Z,111.20
2018-06-27T02:53:28.535Z,100.60
2018-06-27T02:54:28.585Z,103.40
2018-06-27T02:55:28.604Z,102.90
2018-06-27T02:56:28.667Z,107.20
2018-06-27T02:57:28.727Z,102.80
2018-06-27T02:58:28.733Z,112.90
2018-06-27T02:59:28.799Z,118.60
2018-06-27T03:00:28.834Z,118.90
2018-06-27T03:01:28.873Z,110.00
2018-06-27T03:02:28.954Z,120.50
2018-06-27T03:03:28.950Z,123.20
2018-06-27T03:04:29.027Z,134.20
2018-06-27T03:05:29.070Z,124.70
2018-06-27T03:06:29.098Z,131.80
2018-06-27T03:07:29.182Z,138.30
2018-06-27T03:08:29.194Z,139.50
2018-06-27T03:09:29.244Z,137.80
2018-06-27T03:10:29.290Z,136.10
2018-06-27T03:11:29.344Z,149.80
2018-06-27T03:12:29.387Z,162.10
2018-06-27T03:13:29.426Z,160.80
2018-06-27T03:14:29.456Z,163.20
2018-06-27T03:15:29.502Z,186.20
2018-06-27T03:16:29.572Z,189.60
2018-06-27T03:17:29.621Z,196.90
2018-06-27T03:18:29.706Z,206.90
2018-06-27T03:19:29.691Z,252.30
2018-06-27T03:20:30.034Z,169.70
2018-06-27T03:21:29.781Z,182.80
2018-06-27T03:22:29.831Z,407.80
2018-06-27T03:23:29.854Z,358.90
2018-06-27T03:24:29.910Z,352.00
2018-06-27T03:25:29.984Z,338.30
2018-06-27T03:26:30.004Z,324.50
2018-06-27T03:27:30.048Z,320.40
2018-06-27T03:28:30.081Z,317.90
2018-06-27T03:29:30.117Z,322.40
2018-06-27T03:30:30.173Z,303.30
2018-06-27T03:31:30.203Z,291.40
2018-06-27T03:32:30.480Z,288.20
2018-06-27T03:33:30.316Z,288.90
2018-06-27T03:34:30.352Z,275.60
2018-06-27T03:35:30.381Z,274.80
2018-06-27T03:36:30.469Z,266.90
2018-06-27T03:37:30.501Z,272.70
2018-06-27T03:38:30.547Z,271.00
2018-06-27T03:39:30.594Z,262.40
2018-06-27T03:40:30.637Z,262.60
2018-06-27T03:41:30.671Z,268.60
2018-06-27T03:42:30.719Z,264.90
2018-06-27T03:43:30.785Z,282.70
2018-06-27T03:44:30.817Z,279.60
2018-06-27T03:45:30.847Z,294.80
2018-06-27T03:46:30.894Z,316.70
2018-06-27T03:47:30.911Z,282.90
2018-06-27T03:48:31.208Z,313.00
2018-06-27T03:49:31.030Z,310.40
2018-06-27T03:50:31.055Z,307.70
2018-06-27T03:51:31.110Z,339.60
2018-06-27T03:52:31.153Z,317.80
2018-06-27T03:53:31.194Z,247.60
2018-06-27T03:54:31.232Z,251.10
2018-06-27T03:55:31.308Z,229.60
2018-06-27T03:56:31.336Z,222.80
2018-06-27T03:57:31.372Z,241.40
2018-06-27T03:58:31.416Z,198.80
2018-06-27T03:59:31.659Z,180.30
2018-06-27T04:00:31.524Z,174.20
2018-06-27T04:01:31.543Z,150.50
2018-06-27T04:02:31.606Z,171.20
2018-06-27T04:03:31.667Z,175.40
2018-06-27T04:04:31.672Z,181.40
2018-06-27T04:05:31.737Z,163.50
2018-06-27T04:06:31.782Z,164.50
2018-06-27T04:07:31.806Z,183.80
2018-06-27T04:08:31.873Z,203.90
2018-06-27T04:09:31.921Z,170.70
2018-06-27T04:10:31.983Z,165.90
2018-06-27T04:11:31.980Z,189.00
2018-06-27T04:12:32.072Z,179.70
2018-06-27T04:13:32.083Z,177.50
2018-06-27T04:14:32.171Z,166.60
2018-06-27T04:15:32.193Z,170.50
2018-06-27T04:16:32.236Z,169.40
2018-06-27T04:17:32.266Z,163.10
2018-06-27T04:18:32.306Z,153.00
2018-06-27T04:19:32.347Z,157.80
2018-06-27T04:20:32.382Z,221.90
2018-06-27T04:21:32.709Z,252.20
2018-06-27T04:22:32.480Z,135.80
2018-06-27T04:23:32.505Z,135.90
2018-06-27T04:24:32.575Z,142.10
2018-06-27T04:25:32.593Z,158.80
2018-06-27T04:26:32.664Z,160.80
2018-06-27T04:27:32.722Z,153.60
2018-06-27T04:28:32.752Z,155.80
2018-06-27T04:29:32.784Z,184.00
2018-06-27T04:30:32.854Z,179.90
2018-06-27T04:31:32.877Z,157.60
2018-06-27T04:32:33.187Z,154.80
2018-06-27T04:33:32.983Z,165.70
2018-06-27T04:34:33.021Z,169.90
2018-06-27T04:35:33.053Z,246.40
2018-06-27T04:36:33.100Z,288.30
2018-06-27T04:37:33.125Z,290.00
2018-06-27T04:38:33.187Z,315.50
2018-06-27T04:39:33.234Z,306.60
2018-06-27T04:40:33.280Z,360.30
2018-06-27T04:41:33.344Z,404.10
2018-06-27T04:42:33.386Z,443.20
2018-06-27T04:43:33.618Z,481.10
2018-06-27T04:44:33.456Z,535.60
2018-06-27T04:45:33.484Z,571.70
2018-06-27T04:46:33.566Z,593.70
2018-06-27T04:47:33.596Z,588.70
2018-06-27T04:48:33.635Z,596.90
2018-06-27T04:49:33.710Z,618.50
2018-06-27T04:50:33.718Z,608.80
2018-06-27T04:51:33.773Z,600.90
2018-06-27T04:52:33.824Z,618.30
2018-06-27T04:53:33.860Z,626.60
2018-06-27T04:54:34.089Z,619.60
2018-06-27T04:55:33.942Z,620.70
2018-06-27T04:56:33.969Z,632.20
2018-06-27T04:57:34.037Z,640.30
2018-06-27T04:58:34.073Z,570.10
2018-06-27T04:59:34.115Z,582.50
2018-06-27T05:00:34.160Z,537.10
2018-06-27T05:01:34.213Z,549.00
2018-06-27T05:02:34.232Z,529.60
2018-06-27T05:03:34.295Z,529.00
2018-06-27T05:04:34.315Z,471.40
2018-06-27T05:05:34.377Z,454.00
2018-06-27T05:06:34.389Z,474.40
2018-06-27T05:07:34.511Z,453.60
2018-06-27T05:08:34.501Z,482.90
2018-06-27T05:09:34.546Z,424.20
2018-06-27T05:10:34.789Z,412.10
2018-06-27T05:11:34.664Z,391.30
2018-06-27T05:12:34.687Z,390.40
2018-06-27T05:13:34.723Z,385.40
2018-06-27T05:14:34.754Z,363.00
2018-06-27T05:15:34.778Z,396.70
2018-06-27T05:16:34.848Z,387.40
2018-06-27T05:17:34.892Z,336.80
2018-06-27T05:18:34.939Z,327.50
2018-06-27T05:19:34.963Z,327.60
2018-06-27T05:20:35.017Z,328.90
2018-06-27T05:21:35.057Z,315.60
2018-06-27T05:22:35.300Z,321.20
2018-06-27T05:23:35.134Z,328.90
2018-06-27T05:24:35.185Z,340.80
2018-06-27T05:25:35.251Z,293.20
2018-06-27T05:26:35.290Z,284.90
2018-06-27T05:27:35.411Z,269.70
2018-06-27T05:28:35.378Z,259.10
2018-06-27T05:29:35.384Z,223.90
2018-06-27T05:30:35.433Z,250.20
2018-06-27T05:31:35.485Z,262.90
2018-06-27T05:32:35.586Z,254.30
2018-06-27T05:33:35.813Z,246.70
2018-06-27T05:34:35.600Z,226.20
2018-06-27T05:35:35.683Z,231.40
2018-06-27T05:36:35.696Z,214.40
2018-06-27T05:37:35.748Z,229.10
2018-06-27T05:38:35.800Z,208.40
2018-06-27T05:39:35.824Z,211.40
2018-06-27T05:40:35.890Z,176.90
2018-06-27T05:41:35.921Z,171.90
2018-06-27T05:42:35.969Z,177.40
2018-06-27T05:43:35.995Z,175.70
2018-06-27T05:44:36.050Z,165.10
2018-06-27T05:45:36.105Z,166.80
2018-06-27T05:46:36.127Z,161.20
2018-06-27T05:47:36.191Z,155.40
2018-06-27T05:48:36.418Z,150.50
2018-06-27T05:49:36.256Z,153.40
2018-06-27T05:50:36.319Z,169.00
2018-06-27T05:51:36.360Z,164.40
2018-06-27T05:52:36.388Z,161.30
2018-06-27T05:53:36.452Z,155.90
2018-06-27T05:54:36.474Z,158.50
2018-06-27T05:55:36.536Z,174.20
2018-06-27T05:56:36.595Z,189.40
2018-06-27T05:57:36.588Z,195.60
2018-06-27T05:58:36.673Z,215.00
2018-06-27T05:59:36.696Z,227.10
2018-06-27T06:00:36.930Z,246.60
2018-06-27T06:01:36.783Z,288.70
2018-06-27T06:02:36.822Z,309.70
2018-06-27T06:03:36.885Z,333.30
2018-06-27T06:04:36.927Z,337.60
2018-06-27T06:05:36.987Z,330.10
2018-06-27T06:06:37.016Z,343.70
2018-06-27T06:07:37.049Z,368.70
2018-06-27T06:08:37.091Z,355.30
2018-06-27T06:09:37.139Z,331.30
2018-06-27T06:10:37.180Z,323.90
2018-06-27T06:11:37.504Z,306.70
2018-06-27T06:12:37.246Z,265.40
2018-06-27T06:13:37.302Z,253.50
2018-06-27T06:14:37.343Z,246.30
2018-06-27T06:15:37.396Z,212.40
2018-06-27T06:16:37.466Z,211.00
2018-06-27T06:17:37.493Z,213.20
2018-06-27T06:18:37.545Z,243.70
2018-06-27T06:19:37.636Z,267.80
2018-06-27T06:20:37.606Z,275.70
2018-06-27T06:21:37.649Z,277.70
2018-06-27T06:22:37.695Z,300.60
2018-06-27T06:23:37.729Z,345.70
2018-06-27T06:24:37.815Z,373.50
2018-06-27T06:25:37.822Z,367.10
2018-06-27T06:26:37.899Z,355.70
2018-06-27T06:27:38.149Z,377.00
2018-06-27T06:28:37.977Z,360.10
2018-06-27T06:29:37.988Z,382.60
2018-06-27T06:30:38.028Z,373.40
2018-06-27T06:31:38.069Z,389.40
2018-06-27T06:32:38.140Z,394.40
2018-06-27T06:33:38.181Z,413.30
2018-06-27T06:34:38.253Z,426.20
2018-06-27T06:35:38.275Z,431.60
2018-06-27T06:36:38.297Z,420.60
2018-06-27T06:37:38.344Z,424.50
2018-06-27T06:38:38.409Z,431.00
2018-06-27T06:39:38.695Z,426.10
2018-06-27T06:40:38.511Z,435.50
2018-06-27T06:41:38.533Z,373.90
2018-06-27T06:42:38.586Z,411.60
2018-06-27T06:43:38.621Z,372.70
2018-06-27T06:44:38.632Z,315.80
2018-06-27T06:45:38.687Z,372.00
2018-06-27T06:46:38.742Z,382.50
2018-06-27T06:47:38.835Z,375.50
2018-06-27T06:48:38.818Z,425.20
2018-06-27T06:49:38.876Z,407.00
2018-06-27T06:50:38.915Z,378.10
2018-06-27T06:51:38.971Z,389.20
2018-06-27T06:52:38.988Z,384.50
2018-06-27T06:53:39.040Z,361.10
2018-06-27T06:54:39.087Z,426.90
2018-06-27T06:55:39.113Z,424.80
2018-06-27T06:56:39.158Z,427.10
2018-06-27T06:57:39.224Z,451.40
2018-06-27T06:58:39.276Z,459.20
2018-06-27T06:59:39.316Z,457.40
2018-06-27T07:00:39.336Z,430.20
2018-06-27T07:01:39.371Z,518.80
2018-06-27T07:02:39.635Z,509.90
2018-06-27T07:03:39.490Z,550.70
2018-06-27T07:04:39.505Z,525.50
2018-06-27T07:05:39.543Z,504.20
2018-06-27T07:06:39.592Z,515.40
2018-06-27T07:07:39.635Z,531.20
2018-06-27T07:08:39.689Z,522.60
2018-06-27T07:09:39.732Z,521.70
2018-06-27T07:10:39.781Z,497.40
2018-06-27T07:11:39.793Z,519.90
2018-06-27T07:12:39.882Z,498.60
2018-06-27T07:13:40.101Z,490.70
2018-06-27T07:14:39.939Z,432.20
2018-06-27T07:15:39.965Z,439.80
2018-06-27T07:16:40.030Z,419.90
2018-06-27T07:17:40.085Z,398.90
2018-06-27T07:18:40.116Z,381.20
2018-06-27T07:19:40.144Z,380.20
2018-06-27T07:20:40.212Z,397.80
2018-06-27T07:21:40.261Z,378.10
2018-06-27T07:22:40.268Z,368.80
2018-06-27T07:23:40.342Z,390.00
2018-06-27T07:24:40.621Z,437.20
2018-06-27T07:25:40.411Z,452.40
2018-06-27T07:26:40.474Z,428.00
2018-06-27T07:27:40.503Z,473.60
2018-06-27T07:28:40.671Z,474.60
2018-06-27T07:29:40.574Z,490.20
2018-06-27T07:30:40.658Z,415.90
2018-06-27T07:31:40.673Z,514.60
2018-06-27T07:32:40.739Z,475.40
2018-06-27T07:33:40.787Z,503.30
2018-06-27T07:34:40.810Z,552.00
2018-06-27T07:35:40.809Z,521.10
2018-06-27T07:36:41.108Z,544.40
2018-06-27T07:37:40.938Z,487.20
2018-06-27T07:38:40.989Z,539.10
2018-06-27T07:39:41.039Z,568.10
2018-06-27T07:40:41.061Z,599.70
2018-06-27T07:41:41.101Z,614.50
2018-06-27T07:42:41.149Z,638.40
2018-06-27T07:43:41.209Z,602.60
2018-06-27T07:44:41.215Z,550.10
2018-06-27T07:45:41.260Z,533.00
2018-06-27T07:46:41.313Z,450.90
2018-06-27T07:47:41.374Z,554.50
2018-06-27T07:48:41.595Z,577.20
2018-06-27T07:49:41.490Z,562.00
2018-06-27T07:50:41.517Z,575.80
2018-06-27T07:51:41.530Z,586.00
2018-06-27T07:52:41.584Z,646.60
2018-06-27T07:53:41.632Z,639.10
2018-06-27T07:54:41.700Z,639.80
2018-06-27T07:55:41.731Z,668.60
2018-06-27T07:56:41.762Z,657.10
2018-06-27T07:57:41.804Z,645.60
2018-06-27T07:58:41.849Z,668.70
2018-06-27T07:59:41.864Z,656.10
2018-06-27T08:00:42.106Z,648.30
2018-06-27T08:01:41.960Z,635.40
2018-06-27T08:02:42.003Z,627.30
2018-06-27T08:03:42.076Z,609.40
2018-06-27T08:04:42.070Z,618.00
2018-06-27T08:05:42.138Z,581.90
2018-06-27T08:06:42.190Z,563.20
2018-06-27T08:07:42.236Z,592.30
2018-06-27T08:08:42.280Z,609.20
2018-06-27T08:09:42.332Z,584.80
2018-06-27T08:10:42.355Z,571.70
2018-06-27T08:11:42.429Z,559.00
2018-06-27T08:12:42.725Z,572.30
2018-06-27T08:13:42.476Z,546.30
2018-06-27T08:14:42.518Z,560.00
2018-06-27T08:15:42.548Z,567.50
2018-06-27T08:16:42.621Z,546.20
2018-06-27T08:17:42.651Z,554.60
2018-06-27T08:18:42.694Z,550.80
2018-06-27T08:19:42.742Z,557.40
2018-06-27T08:20:42.786Z,537.10
2018-06-27T08:21:42.846Z,556.10
2018-06-27T08:22:42.895Z,571.30
2018-06-27T08:23:43.102Z,549.60
2018-06-27T08:24:42.978Z,547.00
2018-06-27T08:25:42.992Z,512.10
2018-06-27T08:26:43.040Z,522.00
2018-06-27T08:27:43.091Z,522.30
2018-06-27T08:28:43.133Z,520.70
2018-06-27T08:29:43.191Z,401.40
2018-06-27T08:30:43.213Z,352.30
2018-06-27T08:31:43.253Z,308.30
2018-06-27T08:32:43.322Z,253.40
2018-06-27T08:33:43.325Z,211.20
2018-06-27T08:34:43.370Z,195.90
2018-06-27T08:35:43.664Z,207.00
2018-06-27T08:36:43.480Z,195.10
2018-06-27T08:37:43.534Z,210.80
2018-06-27T08:38:43.566Z,242.50
2018-06-27T08:39:43.604Z,268.10
2018-06-27T08:40:43.643Z,263.10
2018-06-27T08:41:43.682Z,286.00
2018-06-27T08:42:43.735Z,276.20
2018-06-27T08:43:43.796Z,232.70
2018-06-27T08:44:43.821Z,251.50
2018-06-27T08:45:43.859Z,263.80
2018-06-27T08:46:43.874Z,286.50
2018-06-27T08:47:43.930Z,291.70
2018-06-27T08:48:43.964Z,274.70
2018-06-27T08:49:44.025Z,272.20
2018-06-27T08:50:44.078Z,227.50
2018-06-27T08:51:44.097Z,210.00
2018-06-27T08:52:44.434Z,209.90
2018-06-27T08:53:44.183Z,210.40
2018-06-27T08:54:44.253Z,264.90
2018-06-27T08:55:44.276Z,332.70
2018-06-27T08:56:44.325Z,381.20
2018-06-27T08:57:44.358Z,434.70
2018-06-27T08:58:44.455Z,366.20
2018-06-27T08:59:44.463Z,458.20
2018-06-27T09:00:44.490Z,498.40
2018-06-27T09:01:44.528Z,535.20
2018-06-27T09:02:44.585Z,562.00
2018-06-27T09:03:44.612Z,552.10
2018-06-27T09:04:44.879Z,562.50
2018-06-27T09:05:44.717Z,562.70
2018-06-27T09:06:44.777Z,580.80
2018-06-27T09:07:44.813Z,574.50
2018-06-27T09:08:44.848Z,581.50
2018-06-27T09:09:44.862Z,558.40
2018-06-27T09:10:44.954Z,584.30
2018-06-27T09:11:44.949Z,569.00
2018-06-27T09:12:45.007Z,570.10
2018-06-27T09:13:45.049Z,556.20
2018-06-27T09:14:45.074Z,582.80
2018-06-27T09:15:45.383Z,559.70
2018-06-27T09:16:45.175Z,566.40
2018-06-27T09:17:45.248Z,558.70
2018-06-27T09:18:45.270Z,561.40
2018-06-27T09:19:45.324Z,551.10
2018-06-27T09:20:45.333Z,538.90
2018-06-27T09:21:45.416Z,528.40
2018-06-27T09:22:45.440Z,495.70
2018-06-27T09:23:45.487Z,477.30
2018-06-27T09:24:45.510Z,458.20
2018-06-27T09:25:45.579Z,495.20
2018-06-27T09:26:45.800Z,511.20
2018-06-27T09:27:45.635Z,549.90
2018-06-27T09:28:45.723Z,535.80
2018-06-27T09:29:45.760Z,503.70
2018-06-27T09:30:45.783Z,509.80
2018-06-27T09:31:45.808Z,531.90
2018-06-27T09:32:45.864Z,501.80
2018-06-27T09:33:45.904Z,530.30
2018-06-27T09:34:45.946Z,513.70
2018-06-27T09:35:46.003Z,505.00
2018-06-27T09:36:46.051Z,490.40
2018-06-27T09:37:46.073Z,498.40
2018-06-27T09:38:46.358Z,504.80
2018-06-27T09:39:46.155Z,509.90
2018-06-27T09:40:46.219Z,491.70
2018-06-27T09:41:46.260Z,498.80
2018-06-27T09:42:46.316Z,488.80
2018-06-27T09:43:46.358Z,489.60
2018-06-27T09:44:46.374Z,505.00
2018-06-27T09:45:46.447Z,497.80
2018-06-27T09:46:46.471Z,455.60
2018-06-27T09:47:46.525Z,495.90
2018-06-27T09:48:46.549Z,502.40
2018-06-27T09:49:46.583Z,510.00
2018-06-27T09:50:46.653Z,493.60
2018-06-27T09:51:46.658Z,444.70
2018-06-27T09:52:46.733Z,475.00
2018-06-27T09:53:46.795Z,503.30
2018-06-27T09:54:46.806Z,484.40
2018-06-27T09:55:46.854Z,489.20
2018-06-27T09:56:46.897Z,473.70
2018-06-27T09:57:46.963Z,448.70
2018-06-27T09:58:46.991Z,458.50
2018-06-27T09:59:47.031Z,452.60
2018-06-27T10:00:47.076Z,423.00
2018-06-27T10:01:47.108Z,390.20
2018-06-27T10:02:47.156Z,416.70
2018-06-27T10:03:47.212Z,370.40
2018-06-27T10:04:47.236Z,156.50
2018-06-27T10:05:47.310Z,178.30
2018-06-27T10:06:47.324Z,173.20
2018-06-27T10:07:47.430Z,211.80
2018-06-27T10:08:47.429Z,303.40
2018-06-27T10:09:47.454Z,291.00
2018-06-27T10:10:47.495Z,305.60
2018-06-27T10:11:47.554Z,294.00
2018-06-27T10:12:47.601Z,307.40
2018-06-27T10:13:47.634Z,288.40
2018-06-27T10:14:47.692Z,269.70
2018-06-27T10:15:47.719Z,253.80
2018-06-27T10:16:47.746Z,252.40
2018-06-27T10:17:47.795Z,240.80
2018-06-27T10:18:47.836Z,237.60
2018-06-27T10:19:47.913Z,224.20
2018-06-27T10:20:47.908Z,204.60
2018-06-27T10:21:47.977Z,178.10
2018-06-27T10:22:48.103Z,171.30
2018-06-27T10:23:48.073Z,184.60
2018-06-27T10:24:48.104Z,152.50
2018-06-27T10:25:48.132Z,160.80
2018-06-27T10:26:48.197Z,161.70
2018-06-27T10:27:48.225Z,165.20
2018-06-27T10:28:48.277Z,176.40
2018-06-27T10:29:48.318Z,171.00
2018-06-27T10:30:48.341Z,178.30
2018-06-27T10:31:48.408Z,194.50
2018-06-27T10:32:48.480Z,192.20
2018-06-27T10:33:48.493Z,192.20
2018-06-27T10:34:48.561Z,213.10
2018-06-27T10:35:48.651Z,209.40
2018-06-27T10:36:48.647Z,209.80
2018-06-27T10:37:48.652Z,225.00
2018-06-27T10:38:48.717Z,203.50
2018-06-27T10:39:48.775Z,194.60
2018-06-27T10:40:48.799Z,200.80
2018-06-27T10:41:48.847Z,196.50
2018-06-27T10:42:48.885Z,197.50
2018-06-27T10:43:48.956Z,166.60
2018-06-27T10:44:48.979Z,186.10
2018-06-27T10:45:49.021Z,134.30
2018-06-27T10:46:49.054Z,151.90
2018-06-27T10:47:49.100Z,136.10
2018-06-27T10:48:49.128Z,135.60
2018-06-27T10:49:49.192Z,142.50
2018-06-27T10:50:49.254Z,112.40
2018-06-27T10:51:49.290Z,119.70
2018-06-27T10:52:49.337Z,109.30
2018-06-27T10:53:49.363Z,114.70
2018-06-27T10:54:49.412Z,109.70
2018-06-27T10:55:49.461Z,133.90
2018-06-27T10:56:49.512Z,131.30
2018-06-27T10:57:49.545Z,109.20
2018-06-27T10:58:49.608Z,98.30
2018-06-27T10:59:49.638Z,102.70
2018-06-27T11:00:49.696Z,95.10
2018-06-27T11:01:49.717Z,101.00
2018-06-27T11:02:49.793Z,109.60
2018-06-27T11:03:49.796Z,98.50
2018-06-27T11:04:49.877Z,108.20
2018-06-27T11:05:49.910Z,124.60
2018-06-27T11:06:49.982Z,125.10
2018-06-27T11:07:50.014Z,135.30
2018-06-27T11:08:50.053Z,124.80
2018-06-27T11:09:50.125Z,125.50
2018-06-27T11:10:50.143Z,117.90
2018-06-27T11:11:50.198Z,126.00
2018-06-27T11:12:50.235Z,147.90
2018-06-27T11:13:50.275Z,150.60
2018-06-27T11:14:50.334Z,153.30
2018-06-27T11:15:50.405Z,170.00
2018-06-27T11:16:50.417Z,173.00
2018-06-27T11:17:50.487Z,201.40
2018-06-27T11:18:50.511Z,203.00
2018-06-27T11:19:50.552Z,201.20
2018-06-27T11:20:50.621Z,188.70
2018-06-27T11:21:50.664Z,213.70
2018-06-27T11:22:50.691Z,205.40
2018-06-27T11:23:50.749Z,189.30
2018-06-27T11:24:50.819Z,199.10
2018-06-27T11:25:50.828Z,178.70
2018-06-27T11:26:50.925Z,190.20
2018-06-27T11:27:50.953Z,152.60
2018-06-27T11:28:50.950Z,156.80
2018-06-27T11:29:51.025Z,135.80
2018-06-27T11:30:51.076Z,132.00
2018-06-27T11:31:51.118Z,130.50
2018-06-27T11:32:51.237Z,126.50
2018-06-27T11:33:51.184Z,120.20
2018-06-27T11:34:51.289Z,102.90
2018-06-27T11:35:51.286Z,96.00
2018-06-27T11:36:51.371Z,87.00
2018-06-27T11:37:51.404Z,84.10
2018-06-27T11:38:51.525Z,86.30
2018-06-27T11:39:51.500Z,81.20
2018-06-27T11:40:51.535Z,75.50
2018-06-27T11:41:51.598Z,66.50
2018-06-27T11:42:51.642Z,68.70
2018-06-27T11:43:51.667Z,75.00
2018-06-27T11:44:51.709Z,273.00
2018-06-27T11:45:51.749Z,290.10
2018-06-27T11:46:51.815Z,266.40
2018-06-27T11:47:51.880Z,297.00
2018-06-27T11:48:51.907Z,301.10
2018-06-27T11:49:51.964Z,285.70
2018-06-27T11:50:52.005Z,295.00
2018-06-27T11:51:52.058Z,152.10
2018-06-27T11:52:52.110Z,132.80
2018-06-27T11:53:52.158Z,136.70
2018-06-27T11:54:52.176Z,145.10
2018-06-27T11:55:52.249Z,139.10
2018-06-27T11:56:52.304Z,167.40
2018-06-27T11:57:52.344Z,207.30
2018-06-27T11:58:52.395Z,211.30
2018-06-27T11:59:52.442Z,171.30
2018-06-27T12:00:52.514Z,180.20
2018-06-27T12:01:52.522Z,209.40
2018-06-27T12:02:52.591Z,196.10
2018-06-27T12:03:52.655Z,200.90
2018-06-27T12:04:52.704Z,200.20
2018-06-27T12:05:52.738Z,204.20
2018-06-27T12:06:52.784Z,202.20
2018-06-27T12:07:52.836Z,176.40
2018-06-27T12:08:52.891Z,169.00
2018-06-27T12:09:52.955Z,170.20
2018-06-27T12:10:53.021Z,181.90
2018-06-27T12:11:53.035Z,198.30
2018-06-27T12:12:53.107Z,207.30
2018-06-27T12:13:53.149Z,217.50
2018-06-27T12:14:53.171Z,234.50
2018-06-27T12:15:53.247Z,224.30
2018-06-27T12:16:53.367Z,224.30
2018-06-27T12:17:53.349Z,236.10
2018-06-27T12:18:53.406Z,221.00
2018-06-27T12:19:53.456Z,223.60
2018-06-27T12:20:53.535Z,223.70
2018-06-27T12:21:53.567Z,203.00
2018-06-27T12:22:53.608Z,217.60
2018-06-27T12:23:53.719Z,199.40
2018-06-27T12:24:53.711Z,207.70
2018-06-27T12:25:53.750Z,219.30
2018-06-27T12:26:53.819Z,220.70
2018-06-27T12:27:53.898Z,215.80
2018-06-27T12:28:53.934Z,232.30